sensor_id;sensor_type;location;lat;lon;timestamp;P1;durP1;ratioP1;P2;durP2;ratioP2
16308;SDS011;8263;48.880;9.276;2023-05-01T00:01:06;128.75;;;119.80;;
16308;SDS011;8263;48.880;9.276;2023-05-01T00:03:33;129.45;;;120.35;;
16308;SDS011;8263;48.880;9.276;2023-05-01T00:06:00;130.55;;;121.20;;
16308;SDS011;8263;48.880;9.276;2023-05-01T00:08:27;129.60;;;120.43;;
16308;SDS011;8263;48.880;9.276;2023-05-01T00:10:54;132.18;;;122.63;;
16308;SDS011;8263;48.880;9.276;2023-05-01T00:13:20;129.40;;;120.30;;
16308;SDS011;8263;48.880;9.276;2023-05-01T00:15:49;131.05;;;121.78;;
16308;SDS011;8263;48.880;9.276;2023-05-01T00:18:16;130.90;;;121.60;;
16308;SDS011;8263;48.880;9.276;2023-05-01T00:20:43;132.13;;;122.63;;
16308;SDS011;8263;48.880;9.276;2023-05-01T00:23:09;130.73;;;121.55;;
16308;SDS011;8263;48.880;9.276;2023-05-01T00:25:36;130.48;;;121.28;;
16308;SDS011;8263;48.880;9.276;2023-05-01T00:28:03;132.30;;;122.90;;
16308;SDS011;8263;48.880;9.276;2023-05-01T00:30:31;130.25;;;121.03;;
16308;SDS011;8263;48.880;9.276;2023-05-01T00:32:59;131.48;;;122.13;;
16308;SDS011;8263;48.880;9.276;2023-05-01T00:35:26;130.50;;;121.07;;
16308;SDS011;8263;48.880;9.276;2023-05-01T00:37:52;131.32;;;122.18;;
16308;SDS011;8263;48.880;9.276;2023-05-01T00:40:19;131.35;;;121.80;;
16308;SDS011;8263;48.880;9.276;2023-05-01T00:42:47;131.18;;;121.90;;
16308;SDS011;8263;48.880;9.276;2023-05-01T00:45:13;128.70;;;119.75;;
16308;SDS011;8263;48.880;9.276;2023-05-01T00:47:40;130.70;;;121.47;;
16308;SDS011;8263;48.880;9.276;2023-05-01T00:50:08;130.00;;;120.90;;
16308;SDS011;8263;48.880;9.276;2023-05-01T00:52:35;130.65;;;121.50;;
16308;SDS011;8263;48.880;9.276;2023-05-01T00:55:02;130.18;;;120.97;;
16308;SDS011;8263;48.880;9.276;2023-05-01T00:57:29;130.85;;;121.50;;
16308;SDS011;8263;48.880;9.276;2023-05-01T00:59:56;130.93;;;121.78;;
16308;SDS011;8263;48.880;9.276;2023-05-01T01:02:23;132.38;;;122.75;;
16308;SDS011;8263;48.880;9.276;2023-05-01T01:04:51;130.80;;;121.53;;
16308;SDS011;8263;48.880;9.276;2023-05-01T01:07:21;131.55;;;122.25;;
16308;SDS011;8263;48.880;9.276;2023-05-01T01:09:54;131.43;;;122.05;;
16308;SDS011;8263;48.880;9.276;2023-05-01T01:12:23;133.10;;;123.60;;
16308;SDS011;8263;48.880;9.276;2023-05-01T01:14:52;133.02;;;123.68;;
16308;SDS011;8263;48.880;9.276;2023-05-01T01:17:23;132.25;;;122.85;;
16308;SDS011;8263;48.880;9.276;2023-05-01T01:22:38;133.57;;;124.07;;
16308;SDS011;8263;48.880;9.276;2023-05-01T01:30:51;133.07;;;123.70;;
16308;SDS011;8263;48.880;9.276;2023-05-01T01:33:44;133.70;;;124.20;;
16308;SDS011;8263;48.880;9.276;2023-05-01T01:36:15;131.27;;;122.05;;
16308;SDS011;8263;48.880;9.276;2023-05-01T01:38:44;131.75;;;122.38;;
16308;SDS011;8263;48.880;9.276;2023-05-01T01:41:12;133.13;;;123.70;;
16308;SDS011;8263;48.880;9.276;2023-05-01T01:43:41;132.18;;;122.90;;
16308;SDS011;8263;48.880;9.276;2023-05-01T01:46:09;132.32;;;122.95;;
16308;SDS011;8263;48.880;9.276;2023-05-01T01:48:37;132.57;;;123.18;;
16308;SDS011;8263;48.880;9.276;2023-05-01T01:51:11;131.50;;;122.18;;
16308;SDS011;8263;48.880;9.276;2023-05-01T01:53:38;132.75;;;123.35;;
16308;SDS011;8263;48.880;9.276;2023-05-01T01:56:06;133.00;;;123.47;;
16308;SDS011;8263;48.880;9.276;2023-05-01T01:58:34;133.85;;;124.35;;
16308;SDS011;8263;48.880;9.276;2023-05-01T02:01:02;132.63;;;123.20;;
16308;SDS011;8263;48.880;9.276;2023-05-01T02:03:30;132.93;;;123.35;;
16308;SDS011;8263;48.880;9.276;2023-05-01T02:05:58;131.68;;;122.32;;
16308;SDS011;8263;48.880;9.276;2023-05-01T02:08:27;133.32;;;123.93;;
16308;SDS011;8263;48.880;9.276;2023-05-01T02:10:53;133.23;;;123.82;;
16308;SDS011;8263;48.880;9.276;2023-05-01T02:13:23;134.55;;;124.75;;
16308;SDS011;8263;48.880;9.276;2023-05-01T02:15:52;134.30;;;124.63;;
16308;SDS011;8263;48.880;9.276;2023-05-01T02:18:19;132.52;;;123.03;;
16308;SDS011;8263;48.880;9.276;2023-05-01T02:20:46;132.10;;;122.70;;
16308;SDS011;8263;48.880;9.276;2023-05-01T02:23:12;134.30;;;124.28;;
16308;SDS011;8263;48.880;9.276;2023-05-01T02:25:40;134.65;;;125.07;;
16308;SDS011;8263;48.880;9.276;2023-05-01T02:28:11;132.77;;;123.38;;
16308;SDS011;8263;48.880;9.276;2023-05-01T02:30:38;132.50;;;123.13;;
16308;SDS011;8263;48.880;9.276;2023-05-01T02:33:05;134.55;;;124.90;;
16308;SDS011;8263;48.880;9.276;2023-05-01T02:35:37;132.50;;;123.13;;
16308;SDS011;8263;48.880;9.276;2023-05-01T02:38:04;133.90;;;124.40;;
16308;SDS011;8263;48.880;9.276;2023-05-01T02:40:31;135.60;;;125.88;;
16308;SDS011;8263;48.880;9.276;2023-05-01T02:43:00;132.73;;;123.32;;
16308;SDS011;8263;48.880;9.276;2023-05-01T02:45:28;134.18;;;124.60;;
16308;SDS011;8263;48.880;9.276;2023-05-01T02:47:56;132.93;;;123.53;;
16308;SDS011;8263;48.880;9.276;2023-05-01T02:50:25;136.75;;;126.95;;
16308;SDS011;8263;48.880;9.276;2023-05-01T02:52:51;134.00;;;124.50;;
16308;SDS011;8263;48.880;9.276;2023-05-01T02:55:19;134.77;;;125.10;;
16308;SDS011;8263;48.880;9.276;2023-05-01T02:57:45;134.63;;;125.03;;
16308;SDS011;8263;48.880;9.276;2023-05-01T03:00:14;135.52;;;125.72;;
16308;SDS011;8263;48.880;9.276;2023-05-01T03:02:41;133.18;;;123.70;;
16308;SDS011;8263;48.880;9.276;2023-05-01T03:05:07;134.70;;;124.97;;
16308;SDS011;8263;48.880;9.276;2023-05-01T03:07:34;130.85;;;121.60;;
16308;SDS011;8263;48.880;9.276;2023-05-01T03:10:01;134.95;;;125.35;;
16308;SDS011;8263;48.880;9.276;2023-05-01T03:12:28;132.48;;;123.05;;
16308;SDS011;8263;48.880;9.276;2023-05-01T03:14:55;134.35;;;124.75;;
16308;SDS011;8263;48.880;9.276;2023-05-01T03:17:23;134.02;;;124.45;;
16308;SDS011;8263;48.880;9.276;2023-05-01T03:19:50;134.52;;;124.95;;
16308;SDS011;8263;48.880;9.276;2023-05-01T03:22:16;134.73;;;125.03;;
16308;SDS011;8263;48.880;9.276;2023-05-01T03:24:43;134.18;;;124.47;;
16308;SDS011;8263;48.880;9.276;2023-05-01T03:27:11;134.93;;;124.93;;
16308;SDS011;8263;48.880;9.276;2023-05-01T03:29:37;134.98;;;125.40;;
16308;SDS011;8263;48.880;9.276;2023-05-01T03:32:04;134.90;;;125.10;;
16308;SDS011;8263;48.880;9.276;2023-05-01T03:34:32;136.48;;;126.53;;
16308;SDS011;8263;48.880;9.276;2023-05-01T03:36:59;135.13;;;125.43;;
16308;SDS011;8263;48.880;9.276;2023-05-01T03:39:26;133.63;;;124.05;;
16308;SDS011;8263;48.880;9.276;2023-05-01T03:41:52;132.93;;;123.43;;
16308;SDS011;8263;48.880;9.276;2023-05-01T03:44:19;133.93;;;124.45;;
16308;SDS011;8263;48.880;9.276;2023-05-01T03:46:45;136.43;;;126.53;;
16308;SDS011;8263;48.880;9.276;2023-05-01T03:49:12;134.75;;;125.05;;
16308;SDS011;8263;48.880;9.276;2023-05-01T03:51:40;134.40;;;124.05;;
16308;SDS011;8263;48.880;9.276;2023-05-01T03:54:06;134.98;;;125.38;;
16308;SDS011;8263;48.880;9.276;2023-05-01T03:56:33;137.07;;;127.00;;
16308;SDS011;8263;48.880;9.276;2023-05-01T03:59:01;135.57;;;125.90;;
16308;SDS011;8263;48.880;9.276;2023-05-01T04:01:27;134.05;;;124.43;;
16308;SDS011;8263;48.880;9.276;2023-05-01T04:03:54;134.10;;;124.57;;
16308;SDS011;8263;48.880;9.276;2023-05-01T04:06:20;134.45;;;124.72;;
16308;SDS011;8263;48.880;9.276;2023-05-01T04:08:49;136.48;;;126.53;;
16308;SDS011;8263;48.880;9.276;2023-05-01T04:11:16;136.55;;;126.75;;
16308;SDS011;8263;48.880;9.276;2023-05-01T04:13:42;136.15;;;126.35;;
16308;SDS011;8263;48.880;9.276;2023-05-01T04:16:09;136.90;;;126.85;;
16308;SDS011;8263;48.880;9.276;2023-05-01T04:18:36;134.48;;;124.93;;
16308;SDS011;8263;48.880;9.276;2023-05-01T04:21:02;135.68;;;125.97;;
16308;SDS011;8263;48.880;9.276;2023-05-01T04:23:29;136.00;;;126.13;;
16308;SDS011;8263;48.880;9.276;2023-05-01T04:25:57;134.30;;;124.78;;
16308;SDS011;8263;48.880;9.276;2023-05-01T04:28:24;134.38;;;124.78;;
16308;SDS011;8263;48.880;9.276;2023-05-01T04:30:51;130.57;;;121.35;;
16308;SDS011;8263;48.880;9.276;2023-05-01T04:33:18;130.73;;;121.32;;
16308;SDS011;8263;48.880;9.276;2023-05-01T04:35:44;133.80;;;124.22;;
16308;SDS011;8263;48.880;9.276;2023-05-01T04:38:11;134.07;;;124.32;;
16308;SDS011;8263;48.880;9.276;2023-05-01T04:40:39;136.05;;;126.10;;
16308;SDS011;8263;48.880;9.276;2023-05-01T04:43:07;133.55;;;123.80;;
16308;SDS011;8263;48.880;9.276;2023-05-01T04:45:33;134.02;;;124.43;;
16308;SDS011;8263;48.880;9.276;2023-05-01T04:48:00;136.10;;;126.30;;
16308;SDS011;8263;48.880;9.276;2023-05-01T04:50:26;133.23;;;123.78;;
16308;SDS011;8263;48.880;9.276;2023-05-01T04:52:53;134.63;;;124.95;;
16308;SDS011;8263;48.880;9.276;2023-05-01T04:55:19;134.35;;;124.65;;
16308;SDS011;8263;48.880;9.276;2023-05-01T04:57:46;136.25;;;126.38;;
16308;SDS011;8263;48.880;9.276;2023-05-01T05:00:14;135.15;;;125.45;;
16308;SDS011;8263;48.880;9.276;2023-05-01T05:02:43;135.98;;;126.10;;
16308;SDS011;8263;48.880;9.276;2023-05-01T05:05:10;136.32;;;126.40;;
16308;SDS011;8263;48.880;9.276;2023-05-01T05:07:36;135.98;;;126.20;;
16308;SDS011;8263;48.880;9.276;2023-05-01T05:10:03;137.00;;;127.15;;
16308;SDS011;8263;48.880;9.276;2023-05-01T05:12:30;134.82;;;125.10;;
16308;SDS011;8263;48.880;9.276;2023-05-01T05:14:56;134.10;;;124.55;;
16308;SDS011;8263;48.880;9.276;2023-05-01T05:17:25;134.80;;;125.10;;
16308;SDS011;8263;48.880;9.276;2023-05-01T05:19:51;135.35;;;125.70;;
16308;SDS011;8263;48.880;9.276;2023-05-01T05:22:18;135.70;;;125.90;;
16308;SDS011;8263;48.880;9.276;2023-05-01T05:24:44;137.63;;;127.65;;
16308;SDS011;8263;48.880;9.276;2023-05-01T05:27:11;135.52;;;125.80;;
16308;SDS011;8263;48.880;9.276;2023-05-01T05:29:38;135.95;;;126.20;;
16308;SDS011;8263;48.880;9.276;2023-05-01T05:32:05;137.68;;;127.68;;
16308;SDS011;8263;48.880;9.276;2023-05-01T05:34:34;137.68;;;127.68;;
16308;SDS011;8263;48.880;9.276;2023-05-01T05:37:00;135.75;;;126.05;;
16308;SDS011;8263;48.880;9.276;2023-05-01T05:39:27;137.07;;;127.18;;
16308;SDS011;8263;48.880;9.276;2023-05-01T05:41:54;135.55;;;125.50;;
16308;SDS011;8263;48.880;9.276;2023-05-01T05:44:21;135.15;;;125.53;;
16308;SDS011;8263;48.880;9.276;2023-05-01T05:46:48;133.93;;;124.32;;
16308;SDS011;8263;48.880;9.276;2023-05-01T05:49:14;137.77;;;127.70;;
16308;SDS011;8263;48.880;9.276;2023-05-01T05:51:42;136.40;;;126.65;;
16308;SDS011;8263;48.880;9.276;2023-05-01T05:54:09;134.88;;;125.15;;
16308;SDS011;8263;48.880;9.276;2023-05-01T05:56:35;134.63;;;125.00;;
16308;SDS011;8263;48.880;9.276;2023-05-01T05:59:02;134.70;;;125.10;;
16308;SDS011;8263;48.880;9.276;2023-05-01T06:01:30;134.80;;;124.70;;
16308;SDS011;8263;48.880;9.276;2023-05-01T06:03:57;134.70;;;125.00;;
16308;SDS011;8263;48.880;9.276;2023-05-01T06:06:23;135.82;;;126.03;;
16308;SDS011;8263;48.880;9.276;2023-05-01T06:08:51;134.30;;;124.70;;
16308;SDS011;8263;48.880;9.276;2023-05-01T06:11:18;136.10;;;126.38;;
16308;SDS011;8263;48.880;9.276;2023-05-01T06:13:46;136.27;;;126.28;;
16308;SDS011;8263;48.880;9.276;2023-05-01T06:16:14;135.55;;;125.78;;
16308;SDS011;8263;48.880;9.276;2023-05-01T06:18:40;133.13;;;123.68;;
16308;SDS011;8263;48.880;9.276;2023-05-01T06:21:07;135.88;;;126.05;;
16308;SDS011;8263;48.880;9.276;2023-05-01T06:23:34;134.63;;;124.95;;
16308;SDS011;8263;48.880;9.276;2023-05-01T06:26:02;134.65;;;125.03;;
16308;SDS011;8263;48.880;9.276;2023-05-01T06:28:28;137.77;;;127.70;;
16308;SDS011;8263;48.880;9.276;2023-05-01T06:30:55;135.43;;;125.72;;
16308;SDS011;8263;48.880;9.276;2023-05-01T06:33:22;136.07;;;125.88;;
16308;SDS011;8263;48.880;9.276;2023-05-01T06:35:48;137.43;;;127.43;;
16308;SDS011;8263;48.880;9.276;2023-05-01T06:38:15;135.35;;;125.60;;
16308;SDS011;8263;48.880;9.276;2023-05-01T06:40:42;134.00;;;124.53;;
16308;SDS011;8263;48.880;9.276;2023-05-01T06:43:12;135.57;;;125.82;;
16308;SDS011;8263;48.880;9.276;2023-05-01T06:45:39;135.77;;;126.05;;
16308;SDS011;8263;48.880;9.276;2023-05-01T06:48:06;134.80;;;125.20;;
16308;SDS011;8263;48.880;9.276;2023-05-01T06:50:32;136.68;;;126.88;;
16308;SDS011;8263;48.880;9.276;2023-05-01T06:52:59;134.98;;;125.35;;
16308;SDS011;8263;48.880;9.276;2023-05-01T06:55:26;135.20;;;125.50;;
16308;SDS011;8263;48.880;9.276;2023-05-01T06:57:55;135.10;;;125.13;;
16308;SDS011;8263;48.880;9.276;2023-05-01T07:00:23;137.13;;;127.28;;
16308;SDS011;8263;48.880;9.276;2023-05-01T07:02:49;135.07;;;125.30;;
16308;SDS011;8263;48.880;9.276;2023-05-01T07:05:16;135.32;;;125.55;;
16308;SDS011;8263;48.880;9.276;2023-05-01T07:07:43;134.18;;;124.53;;
16308;SDS011;8263;48.880;9.276;2023-05-01T07:10:10;134.88;;;125.28;;
16308;SDS011;8263;48.880;9.276;2023-05-01T07:12:36;136.57;;;126.60;;
16308;SDS011;8263;48.880;9.276;2023-05-01T07:15:03;134.60;;;124.93;;
16308;SDS011;8263;48.880;9.276;2023-05-01T07:17:32;135.57;;;125.88;;
16308;SDS011;8263;48.880;9.276;2023-05-01T07:19:58;135.20;;;125.50;;
16308;SDS011;8263;48.880;9.276;2023-05-01T07:22:25;134.57;;;125.05;;
16308;SDS011;8263;48.880;9.276;2023-05-01T07:24:53;133.70;;;124.05;;
16308;SDS011;8263;48.880;9.276;2023-05-01T07:27:19;135.95;;;126.15;;
16308;SDS011;8263;48.880;9.276;2023-05-01T07:29:46;135.63;;;125.72;;
16308;SDS011;8263;48.880;9.276;2023-05-01T07:32:12;136.50;;;126.63;;
16308;SDS011;8263;48.880;9.276;2023-05-01T07:34:40;133.77;;;124.15;;
16308;SDS011;8263;48.880;9.276;2023-05-01T07:37:07;135.57;;;125.72;;
16308;SDS011;8263;48.880;9.276;2023-05-01T07:39:34;136.68;;;126.78;;
16308;SDS011;8263;48.880;9.276;2023-05-01T07:42:00;134.00;;;124.32;;
16308;SDS011;8263;48.880;9.276;2023-05-01T07:44:27;135.02;;;125.32;;
16308;SDS011;8263;48.880;9.276;2023-05-01T07:46:53;136.38;;;126.55;;
16308;SDS011;8263;48.880;9.276;2023-05-01T07:49:20;134.52;;;124.90;;
16308;SDS011;8263;48.880;9.276;2023-05-01T07:51:48;133.50;;;124.00;;
16308;SDS011;8263;48.880;9.276;2023-05-01T07:54:14;134.50;;;124.85;;
16308;SDS011;8263;48.880;9.276;2023-05-01T07:56:41;134.77;;;125.03;;
16308;SDS011;8263;48.880;9.276;2023-05-01T07:59:08;132.95;;;123.55;;
16308;SDS011;8263;48.880;9.276;2023-05-01T08:01:35;133.38;;;123.78;;
16308;SDS011;8263;48.880;9.276;2023-05-01T08:04:02;130.02;;;120.88;;
16308;SDS011;8263;48.880;9.276;2023-05-01T08:06:28;133.00;;;123.57;;
16308;SDS011;8263;48.880;9.276;2023-05-01T08:08:57;133.90;;;124.20;;
16308;SDS011;8263;48.880;9.276;2023-05-01T08:11:23;131.98;;;122.57;;
16308;SDS011;8263;48.880;9.276;2023-05-01T08:13:50;133.38;;;123.97;;
16308;SDS011;8263;48.880;9.276;2023-05-01T08:16:17;130.98;;;121.70;;
16308;SDS011;8263;48.880;9.276;2023-05-01T08:18:45;133.60;;;124.10;;
16308;SDS011;8263;48.880;9.276;2023-05-01T08:21:11;132.32;;;122.80;;
16308;SDS011;8263;48.880;9.276;2023-05-01T08:23:38;132.73;;;123.40;;
16308;SDS011;8263;48.880;9.276;2023-05-01T08:26:05;132.10;;;122.80;;
16308;SDS011;8263;48.880;9.276;2023-05-01T08:28:33;130.93;;;121.60;;
16308;SDS011;8263;48.880;9.276;2023-05-01T08:31:00;132.95;;;123.57;;
16308;SDS011;8263;48.880;9.276;2023-05-01T08:33:27;132.05;;;122.75;;
16308;SDS011;8263;48.880;9.276;2023-05-01T08:35:56;132.77;;;123.38;;
16308;SDS011;8263;48.880;9.276;2023-05-01T08:38:23;131.98;;;122.68;;
16308;SDS011;8263;48.880;9.276;2023-05-01T08:40:51;134.07;;;124.50;;
16308;SDS011;8263;48.880;9.276;2023-05-01T08:43:19;130.55;;;121.35;;
16308;SDS011;8263;48.880;9.276;2023-05-01T08:45:46;131.85;;;122.13;;
16308;SDS011;8263;48.880;9.276;2023-05-01T08:48:15;130.38;;;121.28;;
16308;SDS011;8263;48.880;9.276;2023-05-01T08:50:44;130.02;;;120.85;;
16308;SDS011;8263;48.880;9.276;2023-05-01T08:53:10;129.98;;;120.60;;
16308;SDS011;8263;48.880;9.276;2023-05-01T08:55:38;130.73;;;121.50;;
16308;SDS011;8263;48.880;9.276;2023-05-01T08:58:05;130.95;;;121.78;;
16308;SDS011;8263;48.880;9.276;2023-05-01T09:00:34;132.43;;;123.07;;
16308;SDS011;8263;48.880;9.276;2023-05-01T09:03:00;131.50;;;122.20;;
16308;SDS011;8263;48.880;9.276;2023-05-01T09:05:30;133.05;;;123.40;;
16308;SDS011;8263;48.880;9.276;2023-05-01T09:07:57;129.98;;;120.85;;
16308;SDS011;8263;48.880;9.276;2023-05-01T09:10:24;131.45;;;122.00;;
16308;SDS011;8263;48.880;9.276;2023-05-01T09:12:53;129.10;;;120.07;;
16308;SDS011;8263;48.880;9.276;2023-05-01T09:15:20;129.40;;;120.40;;
16308;SDS011;8263;48.880;9.276;2023-05-01T09:17:49;127.78;;;118.90;;
16308;SDS011;8263;48.880;9.276;2023-05-01T09:20:15;127.63;;;118.82;;
16308;SDS011;8263;48.880;9.276;2023-05-01T09:22:43;129.95;;;120.85;;
16308;SDS011;8263;48.880;9.276;2023-05-01T09:25:10;130.73;;;121.45;;
16308;SDS011;8263;48.880;9.276;2023-05-01T09:27:36;130.32;;;121.22;;
16308;SDS011;8263;48.880;9.276;2023-05-01T09:30:04;130.05;;;120.85;;
16308;SDS011;8263;48.880;9.276;2023-05-01T09:32:33;129.18;;;120.10;;
16308;SDS011;8263;48.880;9.276;2023-05-01T09:35:09;128.75;;;119.75;;
16308;SDS011;8263;48.880;9.276;2023-05-01T09:37:36;129.95;;;120.85;;
16308;SDS011;8263;48.880;9.276;2023-05-01T09:40:04;127.95;;;119.03;;
16308;SDS011;8263;48.880;9.276;2023-05-01T09:42:31;126.93;;;118.13;;
16308;SDS011;8263;48.880;9.276;2023-05-01T09:44:57;128.75;;;119.55;;
16308;SDS011;8263;48.880;9.276;2023-05-01T09:47:24;127.47;;;118.60;;
16308;SDS011;8263;48.880;9.276;2023-05-01T09:49:55;127.95;;;118.65;;
16308;SDS011;8263;48.880;9.276;2023-05-01T09:52:25;126.80;;;117.30;;
16308;SDS011;8263;48.880;9.276;2023-05-01T09:57:34;125.88;;;117.07;;
16308;SDS011;8263;48.880;9.276;2023-05-01T10:00:02;124.85;;;116.20;;
16308;SDS011;8263;48.880;9.276;2023-05-01T10:02:32;126.78;;;117.90;;
16308;SDS011;8263;48.880;9.276;2023-05-01T10:04:59;124.47;;;115.88;;
16308;SDS011;8263;48.880;9.276;2023-05-01T10:07:27;125.28;;;116.60;;
16308;SDS011;8263;48.880;9.276;2023-05-01T10:09:54;126.45;;;117.68;;
16308;SDS011;8263;48.880;9.276;2023-05-01T10:12:24;124.80;;;116.28;;
16308;SDS011;8263;48.880;9.276;2023-05-01T10:14:51;124.25;;;115.72;;
16308;SDS011;8263;48.880;9.276;2023-05-01T10:17:18;123.10;;;114.53;;
16308;SDS011;8263;48.880;9.276;2023-05-01T10:19:45;121.65;;;113.35;;
16308;SDS011;8263;48.880;9.276;2023-05-01T10:22:12;123.25;;;114.80;;
16308;SDS011;8263;48.880;9.276;2023-05-01T10:24:41;124.22;;;115.68;;
16308;SDS011;8263;48.880;9.276;2023-05-01T10:27:08;123.57;;;115.07;;
16308;SDS011;8263;48.880;9.276;2023-05-01T10:29:37;125.45;;;116.75;;
16308;SDS011;8263;48.880;9.276;2023-05-01T10:32:05;122.88;;;114.45;;
16308;SDS011;8263;48.880;9.276;2023-05-01T10:34:32;123.53;;;114.95;;
16308;SDS011;8263;48.880;9.276;2023-05-01T10:37:01;121.70;;;113.30;;
16308;SDS011;8263;48.880;9.276;2023-05-01T10:39:29;122.32;;;113.93;;
16308;SDS011;8263;48.880;9.276;2023-05-01T10:42:01;122.88;;;114.40;;
16308;SDS011;8263;48.880;9.276;2023-05-01T10:44:28;119.88;;;111.78;;
16308;SDS011;8263;48.880;9.276;2023-05-01T10:46:55;121.22;;;112.95;;
16308;SDS011;8263;48.880;9.276;2023-05-01T10:49:22;122.43;;;114.03;;
16308;SDS011;8263;48.880;9.276;2023-05-01T10:51:58;120.22;;;112.03;;
16308;SDS011;8263;48.880;9.276;2023-05-01T10:54:25;119.57;;;111.38;;
16308;SDS011;8263;48.880;9.276;2023-05-01T10:56:53;119.53;;;111.22;;
16308;SDS011;8263;48.880;9.276;2023-05-01T10:59:21;121.38;;;113.13;;
16308;SDS011;8263;48.880;9.276;2023-05-01T11:01:48;120.15;;;111.90;;
16308;SDS011;8263;48.880;9.276;2023-05-01T11:07:13;119.72;;;111.53;;
16308;SDS011;8263;48.880;9.276;2023-05-01T11:09:40;121.03;;;112.72;;
16308;SDS011;8263;48.880;9.276;2023-05-01T11:12:07;120.72;;;112.53;;
16308;SDS011;8263;48.880;9.276;2023-05-01T11:17:45;116.75;;;108.90;;
16308;SDS011;8263;48.880;9.276;2023-05-01T11:22:55;118.70;;;110.65;;
16308;SDS011;8263;48.880;9.276;2023-05-01T11:25:22;120.47;;;112.28;;
16308;SDS011;8263;48.880;9.276;2023-05-01T11:27:49;119.43;;;111.32;;
16308;SDS011;8263;48.880;9.276;2023-05-01T11:30:16;117.07;;;109.18;;
16308;SDS011;8263;48.880;9.276;2023-05-01T11:32:43;118.15;;;110.13;;
16308;SDS011;8263;48.880;9.276;2023-05-01T11:35:18;120.38;;;112.10;;
16308;SDS011;8263;48.880;9.276;2023-05-01T11:37:45;119.20;;;111.10;;
16308;SDS011;8263;48.880;9.276;2023-05-01T11:40:17;116.47;;;108.57;;
16308;SDS011;8263;48.880;9.276;2023-05-01T11:42:44;118.53;;;110.53;;
16308;SDS011;8263;48.880;9.276;2023-05-01T11:45:11;117.80;;;109.80;;
16308;SDS011;8263;48.880;9.276;2023-05-01T11:47:38;118.65;;;110.55;;
16308;SDS011;8263;48.880;9.276;2023-05-01T11:50:05;116.60;;;108.68;;
16308;SDS011;8263;48.880;9.276;2023-05-01T11:52:41;118.22;;;110.13;;
16308;SDS011;8263;48.880;9.276;2023-05-01T11:55:08;116.78;;;108.88;;
16308;SDS011;8263;48.880;9.276;2023-05-01T11:57:43;117.75;;;109.78;;
16308;SDS011;8263;48.880;9.276;2023-05-01T12:00:10;118.13;;;110.05;;
16308;SDS011;8263;48.880;9.276;2023-05-01T12:02:38;117.53;;;109.53;;
16308;SDS011;8263;48.880;9.276;2023-05-01T12:05:14;113.55;;;105.85;;
16308;SDS011;8263;48.880;9.276;2023-05-01T12:07:43;118.03;;;110.00;;
16308;SDS011;8263;48.880;9.276;2023-05-01T12:10:09;115.68;;;107.88;;
16308;SDS011;8263;48.880;9.276;2023-05-01T12:12:36;113.53;;;105.97;;
16308;SDS011;8263;48.880;9.276;2023-05-01T12:15:02;115.88;;;108.03;;
16308;SDS011;8263;48.880;9.276;2023-05-01T12:17:30;115.38;;;107.45;;
16308;SDS011;8263;48.880;9.276;2023-05-01T12:19:57;115.85;;;107.95;;
16308;SDS011;8263;48.880;9.276;2023-05-01T12:22:26;115.57;;;107.78;;
16308;SDS011;8263;48.880;9.276;2023-05-01T12:24:55;114.90;;;107.20;;
16308;SDS011;8263;48.880;9.276;2023-05-01T12:27:21;116.28;;;108.47;;
16308;SDS011;8263;48.880;9.276;2023-05-01T12:29:48;116.80;;;108.88;;
16308;SDS011;8263;48.880;9.276;2023-05-01T12:32:14;115.40;;;107.60;;
16308;SDS011;8263;48.880;9.276;2023-05-01T12:34:41;116.50;;;108.63;;
16308;SDS011;8263;48.880;9.276;2023-05-01T12:37:08;112.65;;;105.05;;
16308;SDS011;8263;48.880;9.276;2023-05-01T12:39:35;114.82;;;106.97;;
16308;SDS011;8263;48.880;9.276;2023-05-01T12:42:04;112.93;;;105.03;;
16308;SDS011;8263;48.880;9.276;2023-05-01T12:44:36;111.70;;;104.22;;
16308;SDS011;8263;48.880;9.276;2023-05-01T12:47:03;110.53;;;103.13;;
16308;SDS011;8263;48.880;9.276;2023-05-01T12:49:30;115.10;;;107.40;;
16308;SDS011;8263;48.880;9.276;2023-05-01T12:51:58;112.85;;;105.35;;
16308;SDS011;8263;48.880;9.276;2023-05-01T12:54:26;112.03;;;104.53;;
16308;SDS011;8263;48.880;9.276;2023-05-01T12:56:53;111.47;;;104.05;;
16308;SDS011;8263;48.880;9.276;2023-05-01T12:59:31;112.90;;;105.07;;
16308;SDS011;8263;48.880;9.276;2023-05-01T13:01:58;112.13;;;104.53;;
16308;SDS011;8263;48.880;9.276;2023-05-01T13:04:25;113.28;;;105.43;;
16308;SDS011;8263;48.880;9.276;2023-05-01T13:06:52;113.38;;;105.82;;
16308;SDS011;8263;48.880;9.276;2023-05-01T13:09:19;113.22;;;105.72;;
16308;SDS011;8263;48.880;9.276;2023-05-01T13:11:54;112.53;;;105.00;;
16308;SDS011;8263;48.880;9.276;2023-05-01T13:14:21;113.63;;;105.93;;
16308;SDS011;8263;48.880;9.276;2023-05-01T13:16:50;114.47;;;106.88;;
16308;SDS011;8263;48.880;9.276;2023-05-01T13:19:23;114.55;;;106.68;;
16308;SDS011;8263;48.880;9.276;2023-05-01T13:21:51;113.43;;;105.78;;
16308;SDS011;8263;48.880;9.276;2023-05-01T13:24:18;112.93;;;105.28;;
16308;SDS011;8263;48.880;9.276;2023-05-01T13:26:45;113.03;;;105.45;;
16308;SDS011;8263;48.880;9.276;2023-05-01T13:29:12;113.55;;;105.95;;
16308;SDS011;8263;48.880;9.276;2023-05-01T13:31:41;115.35;;;107.22;;
16308;SDS011;8263;48.880;9.276;2023-05-01T13:34:09;111.70;;;104.15;;
16308;SDS011;8263;48.880;9.276;2023-05-01T13:36:36;111.78;;;104.30;;
16308;SDS011;8263;48.880;9.276;2023-05-01T13:39:05;110.13;;;102.72;;
16308;SDS011;8263;48.880;9.276;2023-05-01T13:41:31;111.28;;;103.88;;
16308;SDS011;8263;48.880;9.276;2023-05-01T13:43:59;110.38;;;102.97;;
16308;SDS011;8263;48.880;9.276;2023-05-01T13:46:27;111.93;;;104.50;;
16308;SDS011;8263;48.880;9.276;2023-05-01T13:48:53;111.70;;;104.22;;
16308;SDS011;8263;48.880;9.276;2023-05-01T13:51:22;111.38;;;103.95;;
16308;SDS011;8263;48.880;9.276;2023-05-01T13:53:49;112.30;;;104.82;;
16308;SDS011;8263;48.880;9.276;2023-05-01T13:56:17;112.68;;;105.13;;
16308;SDS011;8263;48.880;9.276;2023-05-01T13:58:44;110.47;;;102.97;;
16308;SDS011;8263;48.880;9.276;2023-05-01T14:01:13;110.03;;;102.78;;
16308;SDS011;8263;48.880;9.276;2023-05-01T14:03:40;111.20;;;103.80;;
16308;SDS011;8263;48.880;9.276;2023-05-01T14:06:07;112.35;;;104.85;;
16308;SDS011;8263;48.880;9.276;2023-05-01T14:08:36;109.88;;;102.50;;
16308;SDS011;8263;48.880;9.276;2023-05-01T14:11:03;110.57;;;103.18;;
16308;SDS011;8263;48.880;9.276;2023-05-01T14:13:30;112.18;;;104.57;;
16308;SDS011;8263;48.880;9.276;2023-05-01T14:15:57;110.55;;;103.25;;
16308;SDS011;8263;48.880;9.276;2023-05-01T14:18:24;110.95;;;103.63;;
16308;SDS011;8263;48.880;9.276;2023-05-01T14:20:50;111.78;;;103.88;;
16308;SDS011;8263;48.880;9.276;2023-05-01T14:23:17;111.35;;;103.93;;
16308;SDS011;8263;48.880;9.276;2023-05-01T14:25:47;111.22;;;103.82;;
16308;SDS011;8263;48.880;9.276;2023-05-01T14:28:14;108.60;;;101.38;;
16308;SDS011;8263;48.880;9.276;2023-05-01T14:30:41;111.28;;;103.90;;